Time;durP1;ratioP1;P1;durP2;ratioP2;P2;SDS_P1;SDS_P2;PMS_P1;PMS_P2;Temp;Humidity;BMP_temperature;BMP_pressure;BME280_temperature;BME280_humidity;BME280_pressure;Samples;Min_cycle;Max_cycle;Signal;HPM_P1;HPM_P2
2021/07/09 00:01:53;;;;;;;4.35;2.33;;;18.60;99.90;;;;;;5052753;28;20205;-61
2021/07/09 00:04:20;;;;;;;4.25;2.38;;;18.60;99.90;;;;;;5052472;28;20225;-60
2021/07/09 00:06:48;;;;;;;5.82;2.40;;;18.50;99.90;;;;;;5052599;28;20212;-60
2021/07/09 00:09:15;;;;;;;3.22;2.30;;;18.50;99.90;;;;;;5052271;28;20673;-60
2021/07/09 00:11:45;;;;;;;4.40;2.72;;;18.50;99.90;;;;;;5052163;28;20212;-60
2021/07/09 00:14:13;;;;;;;4.45;2.63;;;18.50;99.90;;;;;;5052122;28;20229;-60
2021/07/09 00:16:41;;;;;;;4.88;2.47;;;18.60;99.90;;;;;;5052210;28;20263;-60
2021/07/09 00:19:08;;;;;;;6.25;2.40;;;18.60;99.90;;;;;;5051954;28;20221;-61
2021/07/09 00:21:36;;;;;;;4.03;2.40;;;18.70;99.90;;;;;;5051911;28;20255;-60
2021/07/09 00:24:05;;;;;;;4.15;2.70;;;18.70;99.90;;;;;;5051659;28;20245;-60
2021/07/09 00:26:32;;;;;;;3.20;2.90;;;18.60;99.90;;;;;;5051805;28;20700;-60
2021/07/09 00:28:59;;;;;;;4.10;2.45;;;18.70;99.90;;;;;;5051832;28;20210;-60
2021/07/09 00:31:26;;;;;;;4.95;2.60;;;18.80;99.90;;;;;;5051860;28;20201;-60
2021/07/09 00:33:53;;;;;;;3.53;2.75;;;18.70;99.90;;;;;;5051744;28;20279;-61
2021/07/09 00:36:20;;;;;;;3.10;2.75;;;18.90;99.90;;;;;;5051772;28;20213;-61
2021/07/09 00:38:46;;;;;;;4.20;2.60;;;18.80;99.90;;;;;;5051341;28;20221;-61
2021/07/09 00:41:15;;;;;;;7.20;2.95;;;18.90;99.90;;;;;;5051528;28;20576;-61
2021/07/09 00:43:42;;;;;;;3.30;2.63;;;18.90;99.90;;;;;;5051452;28;20721;-61
2021/07/09 00:46:09;;;;;;;4.38;2.60;;;19.00;99.90;;;;;;5051480;28;20259;-61
2021/07/09 00:48:36;;;;;;;3.65;2.72;;;19.00;99.90;;;;;;5051416;28;20688;-61
2021/07/09 00:51:05;;;;;;;3.60;2.35;;;18.90;99.90;;;;;;5051359;28;20213;-61
2021/07/09 00:53:33;;;;;;;2.72;2.03;;;18.90;99.90;;;;;;5051010;28;20233;-61
2021/07/09 00:56:00;;;;;;;4.80;2.00;;;18.90;99.90;;;;;;5051744;28;20263;-61
2021/07/09 00:58:28;;;;;;;6.15;2.08;;;19.00;99.90;;;;;;5051310;28;20276;-61
2021/07/09 01:00:56;;;;;;;3.70;1.73;;;18.90;99.90;;;;;;5051354;28;20212;-60
2021/07/09 01:03:23;;;;;;;3.45;1.80;;;18.90;99.90;;;;;;5051065;28;20225;-61
2021/07/09 01:05:50;;;;;;;4.72;1.73;;;18.90;99.90;;;;;;5051229;28;20292;-61
2021/07/09 01:08:18;;;;;;;4.45;2.28;;;18.90;99.90;;;;;;5050930;28;20801;-61
2021/07/09 01:10:47;;;;;;;2.72;2.00;;;18.80;99.90;;;;;;5051146;28;20305;-61
2021/07/09 01:13:14;;;;;;;5.18;1.80;;;18.80;99.90;;;;;;5051037;28;20230;-61
2021/07/09 01:15:42;;;;;;;4.25;2.05;;;18.80;99.90;;;;;;5050997;28;20255;-61
2021/07/09 01:18:09;;;;;;;6.93;2.20;;;18.80;99.90;;;;;;5050789;28;20221;-61
2021/07/09 01:20:36;;;;;;;3.25;2.15;;;18.80;99.90;;;;;;5050909;28;20217;-61
2021/07/09 01:23:03;;;;;;;5.50;2.33;;;18.80;99.90;;;;;;5050782;28;20295;-61
2021/07/09 01:25:31;;;;;;;4.72;2.17;;;18.90;99.90;;;;;;5050941;28;20292;-61
2021/07/09 01:28:02;;;;;;;3.15;2.20;;;19.10;99.90;;;;;;5050903;28;20247;-61
2021/07/09 01:30:29;;;;;;;4.82;2.15;;;18.80;99.90;;;;;;5051066;28;20210;-61
2021/07/09 01:32:56;;;;;;;8.88;2.40;;;19.10;99.90;;;;;;5050624;28;20234;-61
2021/07/09 01:35:25;;;;;;;6.65;2.15;;;18.70;99.90;;;;;;5050938;28;20213;-61
2021/07/09 01:37:57;;;;;;;4.30;2.10;;;18.80;99.90;;;;;;5050853;28;20232;-61
2021/07/09 01:40:25;;;;;;;6.38;2.20;;;18.70;99.90;;;;;;5050711;28;20209;-61
2021/07/09 01:42:53;;;;;;;3.65;2.20;;;18.70;99.90;;;;;;5050772;28;20575;-61
2021/07/09 01:45:20;;;;;;;4.63;2.20;;;18.60;99.90;;;;;;5050774;28;20205;-61
2021/07/09 01:47:47;;;;;;;7.22;2.35;;;18.60;99.90;;;;;;5050564;28;20731;-61
2021/07/09 01:50:14;;;;;;;2.67;2.00;;;18.50;99.90;;;;;;5050575;28;20205;-61
2021/07/09 01:52:41;;;;;;;4.53;2.40;;;18.40;99.90;;;;;;5050647;28;20257;-61
2021/07/09 01:55:08;;;;;;;5.55;2.60;;;18.40;99.90;;;;;;5050430;28;20220;-61
2021/07/09 01:57:35;;;;;;;4.33;2.13;;;17.50;99.90;;;;;;5050583;28;20279;-61
2021/07/09 02:00:08;;;;;;;3.28;2.08;;;18.50;99.90;;;;;;5050572;28;20213;-61
2021/07/09 02:02:35;;;;;;;2.95;2.28;;;18.40;99.90;;;;;;5050806;28;20229;-61
2021/07/09 02:05:01;;;;;;;3.40;2.17;;;18.50;99.90;;;;;;5050591;28;20237;-61
2021/07/09 02:07:28;;;;;;;6.03;2.50;;;18.40;99.90;;;;;;5050649;28;20209;-61
2021/07/09 02:09:56;;;;;;;3.87;2.67;;;18.40;99.90;;;;;;5050524;28;20213;-61
2021/07/09 02:12:24;;;;;;;5.55;2.72;;;18.50;99.90;;;;;;5050516;28;20255;-61
2021/07/09 02:14:52;;;;;;;9.23;2.60;;;18.50;99.90;;;;;;5050222;28;20212;-61
2021/07/09 02:17:22;;;;;;;4.15;2.67;;;18.40;99.90;;;;;;5050506;28;20206;-61
2021/07/09 02:19:50;;;;;;;3.42;2.60;;;18.40;99.90;;;;;;5050620;28;20202;-60
2021/07/09 02:22:18;;;;;;;4.05;2.40;;;18.40;99.90;;;;;;5050182;28;20227;-60
2021/07/09 02:24:47;;;;;;;5.28;2.63;;;18.30;99.90;;;;;;5050300;28;20258;-60
2021/07/09 02:27:14;;;;;;;3.65;2.25;;;18.40;99.90;;;;;;5050608;28;20209;-60
2021/07/09 02:29:41;;;;;;;6.07;2.67;;;18.30;99.90;;;;;;5050171;28;20202;-61
2021/07/09 02:32:10;;;;;;;5.30;2.55;;;18.30;99.90;;;;;;5050242;28;20221;-60
2021/07/09 02:34:40;;;;;;;6.75;2.70;;;18.30;99.90;;;;;;5050155;28;20210;-60
2021/07/09 02:37:09;;;;;;;3.92;2.72;;;18.30;99.90;;;;;;5050241;28;20214;-60
2021/07/09 02:39:37;;;;;;;6.57;2.63;;;18.40;99.90;;;;;;5050043;28;20226;-61
2021/07/09 02:42:04;;;;;;;4.10;2.67;;;18.40;99.90;;;;;;5050036;28;20213;-61
2021/07/09 02:44:31;;;;;;;5.43;2.63;;;18.30;99.90;;;;;;5050395;28;20206;-60
2021/07/09 02:46:57;;;;;;;3.65;2.95;;;18.40;99.90;;;;;;5053298;28;20206;-60
2021/07/09 02:49:24;;;;;;;3.80;2.92;;;18.20;99.90;;;;;;5053795;28;20198;-60
2021/07/09 02:51:53;;;;;;;5.23;2.90;;;18.40;99.90;;;;;;5053691;28;20681;-60
2021/07/09 02:54:20;;;;;;;3.55;2.70;;;18.40;99.90;;;;;;5053493;28;20732;-60
2021/07/09 02:56:47;;;;;;;6.80;2.97;;;18.40;99.90;;;;;;5053564;28;20206;-60
2021/07/09 02:59:14;;;;;;;8.38;3.22;;;18.40;99.90;;;;;;5053501;28;20229;-60
2021/07/09 03:01:41;;;;;;;7.82;3.00;;;18.40;99.90;;;;;;5053392;28;20210;-60
2021/07/09 03:04:09;;;;;;;6.50;3.10;;;18.40;99.90;;;;;;5053287;28;20229;-60
2021/07/09 03:06:35;;;;;;;5.22;2.90;;;18.40;99.90;;;;;;5053342;28;20240;-60
2021/07/09 03:09:05;;;;;;;7.05;3.20;;;18.40;99.90;;;;;;5053521;28;20229;-60
2021/07/09 03:11:32;;;;;;;5.25;3.22;;;18.40;99.90;;;;;;5053910;28;20613;-61
2021/07/09 03:13:58;;;;;;;3.45;3.00;;;18.40;99.90;;;;;;5053451;28;20279;-60
2021/07/09 03:16:25;;;;;;;7.03;3.47;;;18.40;99.90;;;;;;5053308;28;20228;-61
2021/07/09 03:18:52;;;;;;;6.20;3.10;;;18.40;99.90;;;;;;5052877;28;20228;-60
2021/07/09 03:21:19;;;;;;;6.15;3.17;;;18.40;99.90;;;;;;5053103;28;20267;-61
2021/07/09 03:23:45;;;;;;;4.80;3.47;;;18.40;99.90;;;;;;5053158;28;20242;-60
2021/07/09 03:26:13;;;;;;;8.48;3.55;;;18.30;99.90;;;;;;5053215;28;20202;-61
2021/07/09 03:28:40;;;;;;;7.75;3.28;;;18.30;99.90;;;;;;5052918;28;20227;-61
2021/07/09 03:31:06;;;;;;;5.72;3.13;;;18.30;99.90;;;;;;5052918;28;20432;-61
2021/07/09 03:33:33;;;;;;;7.40;3.40;;;18.30;99.90;;;;;;5053014;28;20229;-61
2021/07/09 03:36:00;;;;;;;6.13;2.97;;;18.20;99.90;;;;;;5052703;28;20209;-61
2021/07/09 03:38:26;;;;;;;3.17;2.88;;;18.30;99.90;;;;;;5052851;28;20236;-61
2021/07/09 03:40:53;;;;;;;4.03;3.27;;;18.30;99.90;;;;;;5052417;28;20240;-61
2021/07/09 03:43:21;;;;;;;5.45;3.50;;;18.40;99.90;;;;;;5052632;28;20279;-61
2021/07/09 03:45:48;;;;;;;7.50;3.45;;;18.30;99.90;;;;;;5052669;28;20209;-61
2021/07/09 03:48:14;;;;;;;6.95;3.58;;;18.30;99.90;;;;;;5052473;28;20208;-61
2021/07/09 03:50:41;;;;;;;5.63;3.20;;;18.20;99.90;;;;;;5052629;28;20209;-61
2021/07/09 03:53:08;;;;;;;4.10;3.30;;;18.30;99.90;;;;;;5052598;28;20233;-61
2021/07/09 03:55:35;;;;;;;4.88;3.40;;;18.20;99.90;;;;;;5052335;28;20668;-60
2021/07/09 03:58:01;;;;;;;9.07;3.70;;;18.20;99.90;;;;;;5051875;28;20209;-61
2021/07/09 04:00:29;;;;;;;6.90;3.83;;;18.30;99.90;;;;;;5052430;28;20472;-61
2021/07/09 04:02:56;;;;;;;4.03;3.63;;;18.30;99.90;;;;;;5052674;28;20222;-61
2021/07/09 04:05:23;;;;;;;5.23;3.47;;;18.30;99.90;;;;;;5052201;28;20232;-61
2021/07/09 04:07:49;;;;;;;6.32;3.63;;;18.20;99.90;;;;;;5052279;28;20213;-61
2021/07/09 04:10:16;;;;;;;4.70;3.33;;;18.30;99.90;;;;;;5052357;28;20212;-61
2021/07/09 04:12:43;;;;;;;6.17;3.50;;;18.30;99.90;;;;;;5052179;28;20225;-61
2021/07/09 04:15:11;;;;;;;4.82;3.40;;;18.30;99.90;;;;;;5052125;28;20257;-61
2021/07/09 04:17:40;;;;;;;4.68;3.25;;;18.20;99.90;;;;;;5052177;28;20209;-61
2021/07/09 04:20:08;;;;;;;4.75;3.15;;;18.10;99.90;;;;;;5051864;28;20439;-61
2021/07/09 04:22:35;;;;;;;4.63;3.50;;;18.10;99.90;;;;;;5051894;28;20244;-61
2021/07/09 04:25:02;;;;;;;5.03;3.45;;;17.90;99.90;;;;;;5051973;28;20629;-61
2021/07/09 04:27:29;;;;;;;6.30;3.38;;;17.90;99.90;;;;;;5052176;28;20255;-61
2021/07/09 04:29:55;;;;;;;7.20;3.67;;;17.80;99.90;;;;;;5051702;28;20209;-61
2021/07/09 04:32:22;;;;;;;5.00;3.33;;;17.90;99.90;;;;;;5051433;28;20267;-61
2021/07/09 04:34:50;;;;;;;4.78;3.67;;;17.80;99.90;;;;;;5051459;28;20697;-61
2021/07/09 04:37:17;;;;;;;6.20;4.03;;;17.90;99.90;;;;;;5051900;28;20563;-61
2021/07/09 04:39:43;;;;;;;5.33;3.37;;;17.90;99.90;;;;;;5051385;28;20252;-61
2021/07/09 04:42:11;;;;;;;7.43;4.00;;;17.80;99.90;;;;;;5051522;28;20283;-61
2021/07/09 04:44:38;;;;;;;10.98;3.35;;;17.80;99.90;;;;;;5051363;28;20216;-61
2021/07/09 04:47:05;;;;;;;6.13;3.80;;;17.90;99.90;;;;;;5051389;28;20755;-61
2021/07/09 04:49:32;;;;;;;5.82;3.60;;;17.90;99.90;;;;;;5051557;28;20205;-61
2021/07/09 04:52:00;;;;;;;7.75;3.20;;;18.00;99.90;;;;;;5051487;28;20210;-61
2021/07/09 04:54:26;;;;;;;5.65;3.25;;;17.90;99.90;;;;;;5051143;28;20257;-61
2021/07/09 04:56:53;;;;;;;6.90;3.20;;;17.80;99.90;;;;;;5051758;28;20208;-61
2021/07/09 04:59:20;;;;;;;5.97;3.90;;;17.80;99.90;;;;;;5051234;28;20229;-61
2021/07/09 05:01:46;;;;;;;5.15;3.35;;;17.70;99.90;;;;;;5051375;28;20210;-61
2021/07/09 05:04:13;;;;;;;6.35;3.25;;;17.70;99.90;;;;;;5050933;28;20229;-61
2021/07/09 05:06:40;;;;;;;5.82;3.65;;;17.70;99.90;;;;;;5051386;28;20206;-61
2021/07/09 05:09:08;;;;;;;4.22;3.30;;;17.60;99.90;;;;;;5050351;28;20205;-61
2021/07/09 05:11:37;;;;;;;3.75;2.97;;;17.50;99.90;;;;;;5051050;28;20205;-61
2021/07/09 05:14:04;;;;;;;7.80;3.30;;;17.50;99.90;;;;;;5050802;28;20312;-61
2021/07/09 05:16:31;;;;;;;4.07;3.27;;;17.70;99.90;;;;;;5051326;28;20208;-61
2021/07/09 05:18:58;;;;;;;2.92;2.58;;;17.50;99.90;;;;;;5050956;28;20247;-61
2021/07/09 05:21:26;;;;;;;5.88;3.17;;;17.60;99.90;;;;;;5051143;28;20217;-61
2021/07/09 05:23:53;;;;;;;4.43;3.10;;;17.60;99.90;;;;;;5051065;28;20803;-61
2021/07/09 05:26:21;;;;;;;4.47;3.40;;;17.50;99.90;;;;;;5050883;28;20210;-60
2021/07/09 05:28:49;;;;;;;3.10;2.80;;;17.50;99.90;;;;;;5050652;28;20670;-60
2021/07/09 05:31:16;;;;;;;7.20;3.80;;;17.60;99.90;;;;;;5051012;28;20213;-60
2021/07/09 05:33:43;;;;;;;4.45;3.35;;;17.60;99.90;;;;;;5051036;28;20548;-60
2021/07/09 05:36:10;;;;;;;6.00;3.23;;;17.60;99.90;;;;;;5050806;28;20202;-61
2021/07/09 05:38:37;;;;;;;6.03;3.10;;;17.60;99.90;;;;;;5050579;28;20209;-61
2021/07/09 05:41:04;;;;;;;4.30;3.30;;;17.70;99.90;;;;;;5051123;28;20623;-61
2021/07/09 05:43:32;;;;;;;5.37;3.60;;;17.60;99.90;;;;;;5051843;28;20290;-61
2021/07/09 05:45:59;;;;;;;3.78;2.90;;;17.70;99.90;;;;;;5050682;28;20209;-61
2021/07/09 05:48:25;;;;;;;4.87;3.30;;;17.70;99.90;;;;;;5050573;28;20681;-61
2021/07/09 05:50:52;;;;;;;4.07;3.20;;;17.80;99.90;;;;;;5050511;28;20197;-61
2021/07/09 05:53:19;;;;;;;5.45;3.30;;;17.90;99.90;;;;;;5050419;28;20271;-61
2021/07/09 05:55:46;;;;;;;8.00;5.93;;;18.00;99.90;;;;;;5050375;28;20210;-61
2021/07/09 05:58:13;;;;;;;4.57;3.00;;;18.00;99.90;;;;;;5050656;28;20581;-61
2021/07/09 06:00:42;;;;;;;8.27;3.87;;;18.00;99.90;;;;;;5050611;28;20275;-60
2021/07/09 06:03:09;;;;;;;7.15;3.92;;;18.00;99.90;;;;;;5050512;28;20233;-60
2021/07/09 06:05:35;;;;;;;5.77;3.17;;;18.00;99.90;;;;;;5050340;28;20276;-61
2021/07/09 06:08:03;;;;;;;4.20;3.13;;;17.90;99.90;;;;;;5050294;28;20731;-60
2021/07/09 06:10:30;;;;;;;6.53;3.53;;;17.90;99.90;;;;;;5050605;28;20214;-59
2021/07/09 06:12:57;;;;;;;3.95;2.90;;;17.90;99.90;;;;;;5050353;28;20240;-59
2021/07/09 06:15:24;;;;;;;4.03;3.20;;;17.80;99.90;;;;;;5050546;28;20209;-60
2021/07/09 06:17:52;;;;;;;4.80;3.40;;;17.70;99.90;;;;;;5050718;28;20206;-60
2021/07/09 06:20:18;;;;;;;5.22;3.05;;;17.70;99.90;;;;;;5052802;28;20225;-60
2021/07/09 06:22:46;;;;;;;4.67;3.40;;;17.60;99.90;;;;;;5054964;28;20310;-60
2021/07/09 06:25:14;;;;;;;4.30;3.40;;;17.60;99.90;;;;;;5054694;28;20217;-60
2021/07/09 06:27:41;;;;;;;5.37;3.60;;;17.60;99.90;;;;;;5054274;28;20263;-60
2021/07/09 06:30:09;;;;;;;4.97;3.53;;;17.60;99.90;;;;;;5054128;28;20206;-60
2021/07/09 06:32:36;;;;;;;8.18;5.88;;;17.60;99.90;;;;;;5054159;28;20275;-60
2021/07/09 06:35:06;;;;;;;7.28;4.80;;;17.60;99.90;;;;;;5054294;28;20202;-60
2021/07/09 06:37:33;;;;;;;5.45;3.33;;;17.60;99.90;;;;;;5053710;28;20205;-60
2021/07/09 06:40:00;;;;;;;4.32;3.50;;;17.60;99.90;;;;;;5053220;28;20312;-60
2021/07/09 06:42:27;;;;;;;5.20;3.47;;;17.70;99.90;;;;;;5053646;28;20233;-60
2021/07/09 06:44:53;;;;;;;11.07;7.93;;;17.70;99.90;;;;;;5053545;28;20240;-60
2021/07/09 06:47:20;;;;;;;4.80;4.20;;;17.60;99.90;;;;;;5054202;28;20739;-60
2021/07/09 06:49:47;;;;;;;4.70;3.83;;;17.80;99.90;;;;;;5053904;28;20225;-60
2021/07/09 06:52:15;;;;;;;7.07;4.37;;;17.70;99.90;;;;;;5053495;28;20205;-60
2021/07/09 06:54:42;;;;;;;5.35;4.20;;;17.70;99.90;;;;;;5053473;28;20206;-60
2021/07/09 06:57:08;;;;;;;4.07;3.57;;;17.70;99.90;;;;;;5053581;28;20202;-60
2021/07/09 06:59:35;;;;;;;4.20;3.42;;;17.80;99.90;;;;;;5053656;28;20271;-60
2021/07/09 07:02:02;;;;;;;4.88;3.80;;;17.90;99.90;;;;;;5053313;28;20454;-60
2021/07/09 07:04:28;;;;;;;5.72;3.50;;;18.00;99.90;;;;;;5053072;28;20225;-58
2021/07/09 07:06:55;;;;;;;5.15;3.90;;;18.10;99.90;;;;;;5053355;28;20627;-60
2021/07/09 07:09:23;;;;;;;5.47;3.58;;;18.10;99.90;;;;;;5053380;28;20649;-60
2021/07/09 07:11:50;;;;;;;6.32;3.63;;;18.20;99.90;;;;;;5053237;28;20213;-60
2021/07/09 07:14:17;;;;;;;6.43;3.90;;;18.20;99.90;;;;;;5053423;28;20291;-60
2021/07/09 07:16:43;;;;;;;5.82;4.35;;;18.30;99.90;;;;;;5053088;28;20255;-60
2021/07/09 07:19:10;;;;;;;5.93;5.35;;;18.30;99.90;;;;;;5052920;28;20201;-60
2021/07/09 07:21:37;;;;;;;9.25;6.43;;;18.10;99.90;;;;;;5052970;28;20205;-60
2021/07/09 07:24:04;;;;;;;7.13;4.72;;;18.40;99.90;;;;;;5052626;28;20233;-60
2021/07/09 07:26:32;;;;;;;5.38;4.30;;;18.40;99.90;;;;;;5052811;28;20674;-60
2021/07/09 07:28:58;;;;;;;10.15;6.07;;;18.60;99.90;;;;;;5052728;28;20591;-60
2021/07/09 07:31:25;;;;;;;7.18;4.20;;;18.70;99.90;;;;;;5051798;28;20205;-60
2021/07/09 07:33:52;;;;;;;9.82;4.60;;;18.90;99.90;;;;;;5052523;28;20233;-60
2021/07/09 07:36:18;;;;;;;4.90;3.85;;;19.10;99.90;;;;;;5052940;28;20233;-60
2021/07/09 07:38:46;;;;;;;4.20;3.53;;;19.40;99.90;;;;;;5052945;28;20685;-60
2021/07/09 07:41:13;;;;;;;6.03;3.95;;;19.40;99.90;;;;;;5052681;28;20226;-60
2021/07/09 07:43:42;;;;;;;6.20;4.05;;;19.60;99.90;;;;;;5052354;28;20232;-64
2021/07/09 07:46:09;;;;;;;5.40;4.10;;;19.70;99.90;;;;;;5052327;28;20210;-60
2021/07/09 07:48:36;;;;;;;4.18;3.45;;;19.80;99.90;;;;;;5052586;28;20214;-60
2021/07/09 07:51:04;;;;;;;6.35;3.65;;;20.30;99.90;;;;;;5052445;28;20209;-60
2021/07/09 07:53:34;;;;;;;6.30;5.00;;;19.90;99.90;;;;;;5051989;28;20229;-60
2021/07/09 07:56:01;;;;;;;6.72;4.22;;;20.00;99.90;;;;;;5052420;28;20213;-60
2021/07/09 07:58:27;;;;;;;5.63;3.60;;;19.90;99.90;;;;;;5052103;28;20677;-61
2021/07/09 08:00:55;;;;;;;4.38;3.97;;;20.00;99.90;;;;;;5052472;28;20225;-60
2021/07/09 08:03:22;;;;;;;6.97;5.60;;;20.10;99.90;;;;;;5052525;28;20268;-60
2021/07/09 08:05:50;;;;;;;8.55;5.25;;;20.40;99.90;;;;;;5052844;28;20206;-61
2021/07/09 08:08:16;;;;;;;3.55;3.25;;;20.10;99.90;;;;;;5052298;28;20208;-60
2021/07/09 08:10:43;;;;;;;5.90;3.58;;;20.00;99.90;;;;;;5052395;28;20557;-61
2021/07/09 08:13:10;;;;;;;6.90;4.00;;;20.10;99.90;;;;;;5052243;28;20222;-61
2021/07/09 08:15:37;;;;;;;5.60;4.15;;;20.00;99.90;;;;;;5052381;28;20259;-60
2021/07/09 08:18:05;;;;;;;5.43;3.60;;;19.90;99.90;;;;;;5052254;28;20704;-62
2021/07/09 08:20:32;;;;;;;5.63;4.88;;;19.80;99.90;;;;;;5052473;28;20221;-61
2021/07/09 08:22:59;;;;;;;4.97;3.97;;;19.60;99.90;;;;;;5051715;28;20237;-60
2021/07/09 08:25:26;;;;;;;5.25;3.90;;;20.10;99.90;;;;;;5051864;28;20205;-61
2021/07/09 08:27:53;;;;;;;6.13;4.18;;;20.30;99.90;;;;;;5052078;28;20202;-60
2021/07/09 08:30:20;;;;;;;7.32;4.22;;;20.60;99.90;;;;;;5051892;28;20263;-61
2021/07/09 08:32:46;;;;;;;5.30;3.65;;;21.00;99.90;;;;;;5051793;28;20233;-60
2021/07/09 08:35:15;;;;;;;4.20;3.58;;;21.30;99.90;;;;;;5051677;28;20296;-61
2021/07/09 08:37:42;;;;;;;5.25;3.88;;;21.40;99.90;;;;;;5051546;28;20259;-60
2021/07/09 08:40:10;;;;;;;6.65;4.40;;;21.50;99.90;;;;;;5051583;28;20260;-61
2021/07/09 08:42:37;;;;;;;4.35;3.67;;;21.70;99.90;;;;;;5051651;28;20504;-61
2021/07/09 08:45:06;;;;;;;5.20;4.00;;;21.90;99.90;;;;;;5051541;28;20208;-61
2021/07/09 08:47:34;;;;;;;6.40;4.63;;;22.20;99.90;;;;;;5051376;28;20632;-61
2021/07/09 08:50:02;;;;;;;9.50;4.70;;;22.50;99.90;;;;;;5051485;28;20197;-61
2021/07/09 08:52:30;;;;;;;5.20;3.35;;;22.90;99.90;;;;;;5051225;28;20229;-61
2021/07/09 08:54:57;;;;;;;4.32;3.80;;;23.30;99.90;;;;;;5051109;28;20565;-61
2021/07/09 08:57:23;;;;;;;4.07;3.67;;;23.70;99.90;;;;;;5051555;28;20286;-61
2021/07/09 08:59:50;;;;;;;7.95;3.80;;;24.00;99.90;;;;;;5050997;28;20205;-61
2021/07/09 09:02:25;;;;;;;8.60;4.63;;;24.30;99.90;;;;;;5051136;28;20209;-61
2021/07/09 09:04:53;;;;;;;6.80;3.63;;;24.50;99.90;;;;;;5051135;28;20263;-61
2021/07/09 09:07:19;;;;;;;4.45;3.22;;;24.70;99.90;;;;;;5051197;28;20271;-61
2021/07/09 09:09:49;;;;;;;4.32;3.17;;;24.90;99.90;;;;;;5051359;28;20209;-60
2021/07/09 09:12:17;;;;;;;4.25;3.20;;;25.00;99.90;;;;;;5051189;28;20205;-60
2021/07/09 09:14:46;;;;;;;4.40;3.67;;;24.60;99.90;;;;;;5051096;28;20212;-60
2021/07/09 09:17:28;;;;;;;5.07;3.60;;;24.60;99.90;;;;;;5051089;28;20592;-60
2021/07/09 09:20:11;;;;;;;4.88;3.65;;;24.70;99.90;;;;;;5050725;28;20304;-60
2021/07/09 09:22:39;;;;;;;5.68;3.60;;;24.90;99.90;;;;;;5051499;28;20267;-60
2021/07/09 09:25:09;;;;;;;4.00;3.60;;;24.90;99.90;;;;;;5050949;28;20240;-61
2021/07/09 09:27:36;;;;;;;7.53;4.53;;;25.00;99.90;;;;;;5050938;28;20206;-61
2021/07/09 09:30:10;;;;;;;5.22;3.88;;;25.40;99.90;;;;;;5050754;28;20680;-61
2021/07/09 09:32:45;;;;;;;4.00;3.08;;;26.00;99.90;;;;;;5050975;28;20309;-61
2021/07/09 09:35:12;;;;;;;6.20;3.60;;;26.70;99.90;;;;;;5050996;28;20209;-61
2021/07/09 09:37:51;;;;;;;6.45;3.40;;;26.90;99.90;;;;;;5050926;28;20278;-61
2021/07/09 09:40:20;;;;;;;5.82;3.53;;;26.80;99.90;;;;;;5051032;28;20319;-60
2021/07/09 09:42:47;;;;;;;6.60;3.40;;;26.70;99.90;;;;;;5050766;28;20226;-61
2021/07/09 09:45:14;;;;;;;5.53;3.13;;;26.50;99.90;;;;;;5050881;28;20213;-60
2021/07/09 09:47:41;;;;;;;4.70;3.10;;;26.20;99.90;;;;;;5050660;28;20205;-61
2021/07/09 09:50:09;;;;;;;3.95;2.85;;;25.90;99.90;;;;;;5050961;28;20205;-60
2021/07/09 09:52:37;;;;;;;5.40;3.13;;;25.80;99.90;;;;;;5050353;28;20229;-60
2021/07/09 09:55:06;;;;;;;5.00;3.15;;;25.80;99.90;;;;;;5052167;28;20217;-60
2021/07/09 09:57:34;;;;;;;6.28;3.92;;;25.90;99.90;;;;;;5054601;28;20209;-60
2021/07/09 10:00:01;;;;;;;5.25;3.22;;;26.00;99.90;;;;;;5054616;28;20213;-61
2021/07/09 10:02:28;;;;;;;3.20;2.78;;;26.10;99.90;;;;;;5054286;28;20221;-61
2021/07/09 10:04:55;;;;;;;3.78;2.83;;;26.00;99.90;;;;;;5054334;28;20209;-60
2021/07/09 10:07:21;;;;;;;7.40;3.10;;;25.80;99.90;;;;;;5054341;28;20300;-61
2021/07/09 10:09:48;;;;;;;5.32;4.38;;;25.50;99.90;;;;;;5053949;28;20629;-60
2021/07/09 10:12:17;;;;;;;5.82;3.25;;;25.40;99.90;;;;;;5054450;28;20204;-60
2021/07/09 10:14:48;;;;;;;6.43;3.22;;;25.40;99.90;;;;;;5054404;28;20310;-60
2021/07/09 10:17:17;;;;;;;4.20;3.28;;;25.50;99.90;;;;;;5054154;28;20232;-59
2021/07/09 10:19:46;;;;;;;5.32;3.10;;;25.70;99.90;;;;;;5052162;28;20231;-62
2021/07/09 10:22:13;;;;;;;5.38;3.00;;;25.90;99.90;;;;;;5053716;28;20237;-62
2021/07/09 10:24:42;;;;;;;3.40;2.60;;;26.20;99.90;;;;;;5053963;28;20201;-62
2021/07/09 10:27:09;;;;;;;4.18;3.30;;;26.40;99.90;;;;;;5053997;28;20232;-61
2021/07/09 10:29:43;;;;;;;5.75;3.45;;;26.60;99.90;;;;;;5053511;28;20241;-62
2021/07/09 10:32:12;;;;;;;7.13;3.80;;;26.60;99.90;;;;;;5053805;28;20208;-62
2021/07/09 10:34:41;;;;;;;6.03;3.25;;;26.70;99.90;;;;;;5038977;28;20264;-62
2021/07/09 10:37:18;;;;;;;8.20;5.40;;;26.70;99.90;;;;;;5033371;28;20280;-62
2021/07/09 10:39:48;;;;;;;7.18;3.05;;;27.10;99.90;;;;;;5033762;28;20205;-62
2021/07/09 10:42:21;;;;;;;4.60;2.72;;;27.40;99.90;;;;;;5033680;28;20226;-62
2021/07/09 10:45:04;;;;;;;7.38;3.40;;;27.60;99.90;;;;;;5033557;28;20348;-62
2021/07/09 10:47:48;;;;;;;5.07;3.10;;;27.60;99.90;;;;;;5033308;28;20217;-62
2021/07/09 10:50:17;;;;;;;5.80;3.10;;;27.20;99.90;;;;;;5033605;28;20209;-62
2021/07/09 10:52:57;;;;;;;4.45;3.22;;;26.70;99.90;;;;;;5033358;28;20233;-61
2021/07/09 10:55:49;;;;;;;5.35;3.20;;;25.80;99.90;;;;;;5033818;28;20194;-62
2021/07/09 10:58:43;;;;;;;4.57;2.92;;;25.50;99.90;;;;;;5033547;28;20211;-62
2021/07/09 11:01:36;;;;;;;5.32;3.03;;;25.70;99.90;;;;;;5033888;28;20636;-62
2021/07/09 11:04:14;;;;;;;4.95;3.17;;;25.60;99.90;;;;;;5033290;28;20232;-61
2021/07/09 11:06:43;;;;;;;6.25;3.10;;;25.60;99.90;;;;;;5032631;28;20221;-61
2021/07/09 11:09:11;;;;;;;5.35;3.15;;;25.60;99.90;;;;;;5033387;28;20202;-62
2021/07/09 11:11:44;;;;;;;3.92;3.28;;;25.40;99.90;;;;;;5033347;28;20210;-60
2021/07/09 11:14:12;;;;;;;4.28;2.78;;;25.20;99.90;;;;;;5033128;28;20726;-61
2021/07/09 11:16:40;;;;;;;5.93;3.42;;;25.10;99.90;;;;;;5032902;28;20210;-62
2021/07/09 11:19:09;;;;;;;3.80;3.33;;;25.00;99.90;;;;;;5033292;28;20259;-62
2021/07/09 11:21:55;;;;;;;7.03;3.20;;;24.90;99.90;;;;;;5033553;28;20284;-61
2021/07/09 11:24:23;;;;;;;3.88;2.88;;;25.10;99.90;;;;;;5032747;28;20234;-61
2021/07/09 11:26:51;;;;;;;3.30;2.83;;;25.00;99.90;;;;;;5032826;28;20623;-61
2021/07/09 11:29:29;;;;;;;4.00;3.28;;;25.00;99.90;;;;;;5033790;28;20206;-60
2021/07/09 11:31:57;;;;;;;4.45;2.92;;;25.10;99.90;;;;;;5033519;28;20214;-62
2021/07/09 11:34:26;;;;;;;7.07;2.95;;;25.30;99.90;;;;;;5033366;28;20226;-62
2021/07/09 11:36:56;;;;;;;5.25;2.65;;;25.50;99.90;;;;;;5033100;28;20264;-62
2021/07/09 11:39:25;;;;;;;5.15;2.78;;;25.90;99.90;;;;;;5032754;28;20214;-67
2021/07/09 11:41:55;;;;;;;3.28;2.85;;;26.50;99.90;;;;;;5032423;28;20734;-61
2021/07/09 11:44:24;;;;;;;3.55;2.53;;;26.80;99.90;;;;;;5032485;28;20230;-61
2021/07/09 11:46:53;;;;;;;4.25;2.30;;;26.80;99.90;;;;;;5032548;28;20211;-61
2021/07/09 11:49:21;;;;;;;3.95;2.28;;;27.00;99.90;;;;;;5032622;28;20206;-61
2021/07/09 11:51:49;;;;;;;5.28;2.63;;;27.60;99.90;;;;;;5032410;28;20213;-61
2021/07/09 11:54:22;;;;;;;3.80;2.42;;;27.90;99.90;;;;;;5031680;28;20652;-61
2021/07/09 11:56:52;;;;;;;4.57;2.42;;;27.90;99.90;;;;;;5032436;28;20317;-61
2021/07/09 11:59:20;;;;;;;5.65;2.70;;;27.20;99.90;;;;;;5032367;28;20304;-61
2021/07/09 12:02:07;;;;;;;4.60;2.80;;;26.60;99.90;;;;;;5032251;28;20222;-61
2021/07/09 12:04:36;;;;;;;7.68;2.90;;;26.10;99.90;;;;;;5032121;28;20221;-66
2021/07/09 12:07:22;;;;;;;3.13;2.67;;;26.10;99.90;;;;;;5032580;28;20206;-62
2021/07/09 12:09:53;;;;;;;6.28;2.60;;;26.10;99.90;;;;;;5032164;28;20704;-62
2021/07/09 12:12:21;;;;;;;4.60;2.60;;;25.70;99.90;;;;;;5031890;28;20206;-62
2021/07/09 12:15:00;;;;;;;3.10;2.58;;;25.10;99.90;;;;;;5031852;28;20269;-62
2021/07/09 12:17:28;;;;;;;5.75;2.50;;;24.50;99.90;;;;;;5032202;28;20291;-61
2021/07/09 12:20:06;;;;;;;3.28;2.60;;;24.30;99.90;;;;;;5032221;28;20202;-62
2021/07/09 12:22:35;;;;;;;3.10;2.78;;;24.30;99.90;;;;;;5031982;28;20234;-65
2021/07/09 12:25:07;;;;;;;3.90;2.67;;;24.50;99.90;;;;;;5031272;28;20268;-63
2021/07/09 12:27:35;;;;;;;5.35;3.10;;;24.50;99.90;;;;;;5031713;28;20609;-61
2021/07/09 12:30:07;;;;;;;3.88;2.92;;;24.80;99.90;;;;;;5031585;28;20214;-61
2021/07/09 12:32:33;;;;;;;3.90;2.90;;;24.90;99.90;;;;;;5031686;28;20324;-61
2021/07/09 12:35:09;;;;;;;5.13;2.60;;;25.10;99.90;;;;;;5031972;28;20217;-61
2021/07/09 12:37:36;;;;;;;2.83;2.55;;;25.00;99.90;;;;;;5031243;28;20674;-61
2021/07/09 12:40:13;;;;;;;3.15;2.47;;;24.80;99.90;;;;;;5031352;28;20214;-62
2021/07/09 12:42:39;;;;;;;3.00;2.42;;;24.60;99.90;;;;;;5031129;28;20722;-61
2021/07/09 12:45:08;;;;;;;3.25;2.70;;;24.70;99.90;;;;;;5031113;28;20805;-61
2021/07/09 12:47:35;;;;;;;2.97;2.40;;;24.90;99.90;;;;;;5031130;28;20225;-60
2021/07/09 12:50:16;;;;;;;4.32;2.83;;;25.00;99.90;;;;;;5031296;28;20210;-60
2021/07/09 12:52:43;;;;;;;3.40;2.80;;;25.30;99.90;;;;;;5031490;28;20309;-60